Time;durP1;ratioP1;P1;durP2;ratioP2;P2;SDS_P1;SDS_P2;PMS_P1;PMS_P2;Temp;Humidity;BMP_temperature;BMP_pressure;BME280_temperature;BME280_humidity;BME280_pressure;Samples;Min_cycle;Max_cycle;Signal;HPM_P1;HPM_P2
2023/06/13 00:00:33;;;;;;;;;;;;;;;25.85;30.03;101020.91;2297423;76;50116;-75
2023/06/13 00:03:36;;;;;;;;;;;;;;;25.85;30.01;101023.61;2297423;76;50233;-76
2023/06/13 00:06:38;;;;;;;;;;;;;;;25.85;29.99;101016.84;2278011;77;52814;-76
2023/06/13 00:09:40;;;;;;;;;;;;;;;25.85;30.07;101024.14;2278221;77;51425;-75
2023/06/13 00:12:44;;;;;;;;;;;;;;;25.84;30.09;101017.91;2297429;77;51484;-76
2023/06/13 00:15:49;;;;;;;;;;;;;;;25.83;29.99;101018.91;2297805;77;22930;-76
2023/06/13 00:18:52;;;;;;;;;;;;;;;25.83;29.93;101019.44;2274156;76;52285;-76
2023/06/13 00:21:56;;;;;;;;;;;;;;;25.83;30.00;101014.83;2322505;76;50420;-75
2023/06/13 00:24:57;;;;;;;;;;;;;;;25.82;29.90;101015.90;2293780;76;22654;-75
2023/06/13 00:27:59;;;;;;;;;;;;;;;25.81;29.91;101004.73;2321938;76;51407;-75
2023/06/13 00:31:00;;;;;;;;;;;;;;;25.82;29.89;101004.23;2292809;76;51641;-76
2023/06/13 00:34:02;;;;;;;;;;;;;;;25.82;29.88;101002.34;2320790;76;51501;-76
2023/06/13 00:37:04;;;;;;;;;;;;;;;25.80;29.84;101000.91;2281693;78;50527;-75
2023/06/13 00:40:06;;;;;;;;;;;;;;;25.80;29.73;101007.16;2285250;78;50287;-77
2023/06/13 00:43:07;;;;;;;;;;;;;;;25.80;29.74;101000.38;2257269;76;52703;-76
2023/06/13 00:46:09;;;;;;;;;;;;;;;25.79;29.74;100997.38;2257327;78;50364;-77
2023/06/13 00:49:11;;;;;;;;;;;;;;;25.79;29.79;100997.38;2289591;75;52448;-75
2023/06/13 00:52:13;;;;;;;;;;;;;;;25.79;29.76;100989.75;2288271;76;50184;-76
2023/06/13 00:55:15;;;;;;;;;;;;;;;25.78;29.71;100998.41;2292502;76;51153;-75
2023/06/13 00:58:17;;;;;;;;;;;;;;;25.78;29.80;100988.09;2293230;76;50664;-76
2023/06/13 01:01:19;;;;;;;;;;;;;;;25.78;29.75;100986.74;2322096;76;50341;-76
2023/06/13 01:04:21;;;;;;;;;;;;;;;25.77;29.70;100989.16;2295404;76;51521;-77
2023/06/13 01:07:29;;;;;;;;;;;;;;;25.78;29.72;100988.09;2267818;77;51862;-76
2023/06/13 01:10:26;;;;;;;;;;;;;;;25.76;29.70;100980.17;2284797;78;22355;-76
2023/06/13 01:13:29;;;;;;;;;;;;;;;25.76;29.71;100976.11;2285657;78;51438;-76
2023/06/13 01:16:36;;;;;;;;;;;;;;;25.75;29.73;100979.88;2285942;78;51528;-76
2023/06/13 01:19:40;;;;;;;;;;;;;;;25.75;29.67;100970.40;2307642;75;51591;-78
2023/06/13 01:22:45;;;;;;;;;;;;;;;25.75;29.71;100973.11;2309958;76;50687;-76
2023/06/13 01:25:57;;;;;;;;;;;;;;;25.75;29.66;100969.58;2297904;76;50683;-76
2023/06/13 01:28:59;;;;;;;;;;;;;;;25.73;29.63;100975.20;2297980;76;50149;-75
2023/06/13 01:35:39;;;;;;;;;;;;;;;25.72;29.56;100980.34;2291970;76;22268;-75
2023/06/13 01:38:40;;;;;;;;;;;;;;;25.71;29.62;100978.66;2288790;78;50742;-75
2023/06/13 01:41:57;;;;;;;;;;;;;;;25.71;29.55;100984.08;2287262;78;50620;-76
2023/06/13 01:44:59;;;;;;;;;;;;;;;25.70;29.59;100979.72;2256758;78;50263;-75
2023/06/13 01:48:02;;;;;;;;;;;;;;;25.70;29.55;100982.44;2285761;78;50715;-76
2023/06/13 01:51:05;;;;;;;;;;;;;;;25.70;29.62;100971.59;2313336;76;51580;-77
2023/06/13 01:54:09;;;;;;;;;;;;;;;25.69;29.58;100979.44;2301833;76;50705;-76
2023/06/13 01:57:10;;;;;;;;;;;;;;;25.68;29.54;100968.27;2277574;77;52424;-77
2023/06/13 02:00:13;;;;;;;;;;;;;;;25.68;29.52;100969.63;2297467;76;52289;-76
2023/06/13 02:03:15;;;;;;;;;;;;;;;25.69;29.48;100969.95;2297519;77;50817;-77
2023/06/13 02:06:17;;;;;;;;;;;;;;;25.67;29.56;100963.91;2297232;76;52271;-76
2023/06/13 02:09:18;;;;;;;;;;;;;;;25.67;29.61;100962.56;2253258;77;49730;-76
2023/06/13 02:12:20;;;;;;;;;;;;;;;25.66;29.58;100963.59;2278279;77;50325;-75
2023/06/13 02:15:22;;;;;;;;;;;;;;;25.66;29.56;100956.81;2297676;77;50415;-76
2023/06/13 02:18:23;;;;;;;;;;;;;;;25.67;29.61;100969.33;2278346;77;51533;-76
2023/06/13 02:21:26;;;;;;;;;;;;;;;25.66;29.63;100962.23;2286350;76;50129;-77
2023/06/13 02:24:28;;;;;;;;;;;;;;;25.65;29.63;100959.23;2319465;76;51640;-76
2023/06/13 02:27:30;;;;;;;;;;;;;;;25.64;29.65;100961.12;2322006;76;51481;-76
2023/06/13 02:30:31;;;;;;;;;;;;;;;25.65;29.68;100955.17;2322169;76;50710;-76
2023/06/13 02:33:33;;;;;;;;;;;;;;;25.64;29.73;100957.59;2293060;76;52361;-77
2023/06/13 02:36:36;;;;;;;;;;;;;;;25.64;29.71;100963.02;2321982;76;52568;-76
2023/06/13 02:39:37;;;;;;;;;;;;;;;25.64;29.69;100959.77;2293694;76;50675;-77
2023/06/13 02:42:39;;;;;;;;;;;;;;;25.63;29.65;100953.20;2293318;76;50742;-77
2023/06/13 02:45:40;;;;;;;;;;;;;;;25.64;29.71;100956.23;2322311;76;51523;-76
2023/06/13 02:48:43;;;;;;;;;;;;;;;25.63;29.71;100955.91;2293057;76;51421;-77
2023/06/13 02:55:23;;;;;;;;;;;;;;;25.62;29.69;100952.91;2323649;74;22349;-77
2023/06/13 02:58:24;;;;;;;;;;;;;;;25.61;29.78;100949.38;2332284;75;52310;-76
2023/06/13 03:01:26;;;;;;;;;;;;;;;25.61;29.83;100952.59;2332513;75;51565;-76
2023/06/13 03:04:28;;;;;;;;;;;;;;;25.59;29.82;100954.19;2350041;75;50524;-76
2023/06/13 03:07:31;;;;;;;;;;;;;;;25.59;29.81;100949.30;2349880;75;50653;-76
2023/06/13 03:10:33;;;;;;;;;;;;;;;25.60;29.80;100950.41;2332405;75;51366;-75
2023/06/13 03:13:34;;;;;;;;;;;;;;;25.59;29.83;100947.41;2332646;75;50703;-76
2023/06/13 03:16:36;;;;;;;;;;;;;;;25.58;29.71;100943.02;2332310;75;51491;-76
2023/06/13 03:19:37;;;;;;;;;;;;;;;25.58;29.81;100947.09;2325940;75;53186;-76
2023/06/13 03:22:39;;;;;;;;;;;;;;;25.58;29.79;100936.78;2257147;77;50749;-76
2023/06/13 03:25:41;;;;;;;;;;;;;;;25.58;29.80;100936.78;2278286;77;50344;-76
2023/06/13 03:28:42;;;;;;;;;;;;;;;25.57;29.85;100940.02;2297330;77;50731;-76
2023/06/13 03:31:44;;;;;;;;;;;;;;;25.58;29.76;100944.91;2278257;77;50711;-75
2023/06/13 03:34:45;;;;;;;;;;;;;;;25.57;29.84;100939.20;2270326;77;52538;-76
2023/06/13 03:37:47;;;;;;;;;;;;;;;25.56;29.84;100932.11;2269569;75;51500;-76
2023/06/13 03:40:48;;;;;;;;;;;;;;;25.56;29.89;100933.46;2314573;76;51272;-76
2023/06/13 03:43:50;;;;;;;;;;;;;;;25.56;29.86;100933.46;2278361;76;50031;-75
2023/06/13 03:46:52;;;;;;;;;;;;;;;25.56;29.89;100934.81;2297445;77;49983;-75
2023/06/13 03:49:53;;;;;;;;;;;;;;;25.56;29.91;100940.23;2278209;76;50995;-75
2023/06/13 03:52:55;;;;;;;;;;;;;;;25.55;29.84;100932.64;2278260;77;50304;-77
2023/06/13 03:55:57;;;;;;;;;;;;;;;25.55;29.92;100929.11;2278427;77;50255;-75
2023/06/13 03:58:58;;;;;;;;;;;;;;;25.55;29.94;100931.81;2297261;77;50334;-76
2023/06/13 04:02:00;;;;;;;;;;;;;;;25.54;29.93;100928.28;2278278;77;50089;-74
2023/06/13 04:05:02;;;;;;;;;;;;;;;25.54;29.90;100929.64;2297417;76;51550;-75
2023/06/13 04:08:06;;;;;;;;;;;;;;;25.54;29.83;100926.11;2305857;76;50335;-74
2023/06/13 04:11:07;;;;;;;;;;;;;;;25.54;29.82;100928.81;2315233;76;50363;-74
2023/06/13 04:14:09;;;;;;;;;;;;;;;25.53;29.84;100926.61;2293121;76;51552;-74
2023/06/13 04:17:10;;;;;;;;;;;;;;;25.53;29.88;100923.08;2321977;76;50280;-76
2023/06/13 04:20:14;;;;;;;;;;;;;;;25.53;29.84;100919.83;2285427;75;50620;-76
2023/06/13 04:23:16;;;;;;;;;;;;;;;25.54;29.78;100921.51;2293692;76;22412;-75
2023/06/13 04:26:17;;;;;;;;;;;;;;;25.53;29.88;100919.83;2267894;76;49547;-75
2023/06/13 04:29:20;;;;;;;;;;;;;;;25.54;29.85;100917.45;2322067;76;50742;-75
2023/06/13 04:32:23;;;;;;;;;;;;;;;25.54;29.93;100922.04;2322053;76;50739;-77
2023/06/13 04:35:25;;;;;;;;;;;;;;;25.53;30.07;100933.91;2322114;76;50344;-76
2023/06/13 04:38:29;;;;;;;;;;;;;;;25.56;29.77;100948.36;2292843;76;52522;-76
2023/06/13 04:41:34;;;;;;;;;;;;;;;25.56;30.04;100938.87;2293752;76;22416;-76
2023/06/13 04:44:33;;;;;;;;;;;;;;;25.57;30.83;100945.98;2321488;76;23040;-76
2023/06/13 04:47:34;;;;;;;;;;;;;;;25.58;31.02;100945.73;2322483;76;51531;-75
2023/06/13 04:50:39;;;;;;;;;;;;;;;25.61;30.95;100944.46;2268693;76;51319;-74
2023/06/13 04:53:39;;;;;;;;;;;;;;;25.65;30.79;100940.27;2283712;77;22390;-75
2023/06/13 04:56:41;;;;;;;;;;;;;;;25.66;30.68;100940.56;2297162;76;50549;-75
2023/06/13 04:59:43;;;;;;;;;;;;;;;25.68;30.73;100941.70;2297750;76;50734;-74
2023/06/13 05:02:45;;;;;;;;;;;;;;;25.71;30.53;100935.30;2278092;77;52608;-75
2023/06/13 05:05:47;;;;;;;;;;;;;;;25.74;30.23;100936.23;2297389;76;51537;-74
2023/06/13 05:08:49;;;;;;;;;;;;;;;25.79;30.13;100937.73;2297153;77;50324;-75
2023/06/13 05:11:51;;;;;;;;;;;;;;;25.83;30.04;100929.44;2297355;76;51532;-74
2023/06/13 05:14:52;;;;;;;;;;;;;;;25.87;30.07;100930.38;2297498;77;50376;-75
2023/06/13 05:17:54;;;;;;;;;;;;;;;25.89;29.98;100922.85;2278037;76;51930;-75
2023/06/13 05:20:57;;;;;;;;;;;;;;;25.93;29.81;100925.42;2311230;75;51578;-75
2023/06/13 05:23:58;;;;;;;;;;;;;;;25.96;29.81;100932.57;2313521;76;51602;-75
2023/06/13 05:27:00;;;;;;;;;;;;;;;26.01;29.70;100925.13;2292853;76;50973;-75
2023/06/13 05:30:02;;;;;;;;;;;;;;;26.07;29.60;100926.91;2322038;76;52420;-75
2023/06/13 05:33:03;;;;;;;;;;;;;;;26.14;29.50;100924.14;2322014;76;51417;-75
2023/06/13 05:36:05;;;;;;;;;;;;;;;26.16;29.45;100925.56;2293264;76;50747;-74
2023/06/13 05:39:07;;;;;;;;;;;;;;;26.20;29.45;100930.00;2304321;75;51471;-74
2023/06/13 05:42:10;;;;;;;;;;;;;;;26.25;29.51;100926.90;2334568;75;50318;-74
2023/06/13 05:45:11;;;;;;;;;;;;;;;26.29;29.50;100932.18;2334467;75;51535;-76
2023/06/13 05:48:13;;;;;;;;;;;;;;;26.36;29.38;100931.26;2335052;75;51469;-74
2023/06/13 05:51:15;;;;;;;;;;;;;;;26.41;29.32;100938.19;2281325;76;52375;-72
2023/06/13 05:54:16;;;;;;;;;;;;;;;26.44;29.29;100942.64;2314893;76;52051;-74
2023/06/13 05:57:18;;;;;;;;;;;;;;;26.44;29.32;100942.64;2293133;76;51595;-74
2023/06/13 06:00:19;;;;;;;;;;;;;;;26.46;29.30;100930.19;2322097;76;51607;-75
2023/06/13 06:03:21;;;;;;;;;;;;;;;26.49;29.38;100932.47;2293112;76;52445;-75
2023/06/13 06:06:23;;;;;;;;;;;;;;;26.51;29.37;100934.40;2321897;76;50348;-74
2023/06/13 06:09:25;;;;;;;;;;;;;;;26.54;29.25;100940.78;2321257;76;50615;-74
2023/06/13 06:12:26;;;;;;;;;;;;;;;26.52;29.41;100930.68;2322154;76;51490;-75
2023/06/13 06:15:28;;;;;;;;;;;;;;;26.53;29.50;100936.39;2293094;76;51086;-74
2023/06/13 06:18:29;;;;;;;;;;;;;;;26.52;29.32;100927.96;2293056;76;51394;-74
2023/06/13 06:21:31;;;;;;;;;;;;;;;26.51;29.36;100933.05;2290535;76;51543;-75
2023/06/13 06:24:32;;;;;;;;;;;;;;;26.54;29.47;100927.21;2290937;76;52180;-74
2023/06/13 06:27:34;;;;;;;;;;;;;;;26.56;29.39;100931.86;2292863;76;52349;-74
2023/06/13 06:30:36;;;;;;;;;;;;;;;26.57;29.37;100940.31;2293233;76;51655;-75
2023/06/13 06:33:37;;;;;;;;;;;;;;;26.60;29.35;100941.74;2322035;76;51495;-74
2023/06/13 06:36:39;;;;;;;;;;;;;;;26.56;29.34;100935.93;2326704;75;50424;-74
2023/06/13 06:39:41;;;;;;;;;;;;;;;26.56;29.28;100937.28;2296913;75;52458;-75
2023/06/13 06:42:42;;;;;;;;;;;;;;;26.55;29.32;100938.36;2307203;76;51386;-74
2023/06/13 06:45:44;;;;;;;;;;;;;;;26.50;29.32;100934.11;2337099;75;51503;-75
2023/06/13 06:48:46;;;;;;;;;;;;;;;26.49;29.32;100934.65;2308359;76;51407;-75
2023/06/13 06:51:48;;;;;;;;;;;;;;;26.50;29.50;100936.83;2309389;76;51670;-76
2023/06/13 06:54:50;;;;;;;;;;;;;;;26.51;29.35;100939.83;2306501;76;49487;-77
2023/06/13 06:57:54;;;;;;;;;;;;;;;26.52;29.32;100929.32;2336514;75;50674;-74
2023/06/13 07:00:57;;;;;;;;;;;;;;;26.52;29.37;100930.68;2329264;75;50685;-75
2023/06/13 07:03:58;;;;;;;;;;;;;;;26.53;29.36;100921.47;2335487;75;52760;-75
2023/06/13 07:07:00;;;;;;;;;;;;;;;26.52;29.27;100915.75;2334422;75;50759;-74
2023/06/13 07:10:02;;;;;;;;;;;;;;;26.49;29.27;100920.26;2312385;75;50136;-74
2023/06/13 07:13:04;;;;;;;;;;;;;;;26.48;29.21;100911.80;2308373;75;51608;-73
2023/06/13 07:16:06;;;;;;;;;;;;;;;26.45;29.31;100902.77;2333420;74;50978;-74
2023/06/13 07:19:07;;;;;;;;;;;;;;;26.44;29.29;100915.51;2364352;74;51565;-74
2023/06/13 07:22:09;;;;;;;;;;;;;;;26.42;29.36;100905.94;2334357;75;50708;-72
2023/06/13 07:25:11;;;;;;;;;;;;;;;26.43;29.26;100911.13;2364271;74;51442;-74
2023/06/13 07:28:12;;;;;;;;;;;;;;;26.41;29.16;100921.91;2334237;75;52515;-74
2023/06/13 07:31:14;;;;;;;;;;;;;;;26.38;29.18;100921.02;2330936;75;51533;-75
2023/06/13 07:34:16;;;;;;;;;;;;;;;26.39;29.21;100916.73;2332307;75;50724;-74
2023/06/13 07:37:19;;;;;;;;;;;;;;;26.43;29.27;100919.80;2346686;74;50406;-74
2023/06/13 07:40:25;;;;;;;;;;;;;;;26.45;29.12;100928.01;2289449;76;52635;-74
2023/06/13 07:43:24;;;;;;;;;;;;;;;26.46;29.07;100924.76;2292299;76;22390;-74
2023/06/13 07:46:25;;;;;;;;;;;;;;;26.49;29.08;100929.75;2292853;76;51550;-74
2023/06/13 07:49:28;;;;;;;;;;;;;;;26.49;29.01;100923.79;2293221;76;51458;-74
2023/06/13 07:52:30;;;;;;;;;;;;;;;26.49;29.10;100919.72;2268179;76;49732;-74
2023/06/13 07:55:32;;;;;;;;;;;;;;;26.50;29.14;100921.90;2268021;76;51702;-75
2023/06/13 07:58:33;;;;;;;;;;;;;;;26.51;29.13;100920.83;2321877;76;50439;-75
2023/06/13 08:01:35;;;;;;;;;;;;;;;26.51;29.03;100922.19;2293115;76;51502;-75
2023/06/13 08:04:37;;;;;;;;;;;;;;;26.50;29.12;100923.26;2267972;76;49421;-75
2023/06/13 08:07:38;;;;;;;;;;;;;;;26.50;29.07;100925.97;2322081;75;50414;-74
2023/06/13 08:10:40;;;;;;;;;;;;;;;26.49;29.18;100924.33;2313726;76;50735;-75
2023/06/13 08:13:41;;;;;;;;;;;;;;;26.48;29.25;100913.98;2322063;76;50633;-74
2023/06/13 08:16:43;;;;;;;;;;;;;;;26.51;29.17;100914.05;2292871;76;51000;-74
2023/06/13 08:19:50;;;;;;;;;;;;;;;26.51;29.25;100915.41;2292662;76;50732;-74
2023/06/13 08:22:52;;;;;;;;;;;;;;;26.54;29.23;100912.28;2294452;76;50533;-75
2023/06/13 08:25:53;;;;;;;;;;;;;;;26.55;29.23;100912.58;2322213;76;50430;-73
2023/06/13 08:28:56;;;;;;;;;;;;;;;26.55;29.25;100899.54;2321998;76;50392;-74
2023/06/13 08:31:58;;;;;;;;;;;;;;;26.56;29.20;100903.36;2322084;76;51992;-74
2023/06/13 08:35:00;;;;;;;;;;;;;;;26.54;29.21;100901.94;2293498;76;51541;-73
2023/06/13 08:38:01;;;;;;;;;;;;;;;26.50;29.27;100912.41;2322044;75;50737;-74
2023/06/13 08:41:03;;;;;;;;;;;;;;;26.49;29.28;100921.61;2281917;77;51231;-74
2023/06/13 08:44:05;;;;;;;;;;;;;;;26.47;29.33;100910.16;2297392;77;51505;-74
2023/06/13 08:47:06;;;;;;;;;;;;;;;26.45;29.37;100914.98;2297311;76;50480;-73
2023/06/13 08:50:08;;;;;;;;;;;;;;;26.43;29.37;100919.80;2278302;76;50371;-73
2023/06/13 08:53:09;;;;;;;;;;;;;;;26.43;29.38;100912.48;2278144;77;50087;-73
2023/06/13 08:56:11;;;;;;;;;;;;;;;26.44;29.43;100917.41;2297325;76;51606;-73
2023/06/13 08:59:14;;;;;;;;;;;;;;;26.43;29.45;100919.80;2297356;76;51557;-74
2023/06/13 09:02:19;;;;;;;;;;;;;;;26.42;29.42;100928.47;2296639;77;50773;-73
2023/06/13 09:05:20;;;;;;;;;;;;;;;26.40;29.46;100926.51;2278239;77;49669;-74
2023/06/13 09:08:22;;;;;;;;;;;;;;;26.39;29.49;100921.33;2308243;75;50373;-74
2023/06/13 09:11:24;;;;;;;;;;;;;;;26.40;29.49;100918.37;2321969;76;50354;-74
2023/06/13 09:14:26;;;;;;;;;;;;;;;26.38;29.49;100910.16;2322244;76;51513;-74
2023/06/13 09:17:28;;;;;;;;;;;;;;;26.35;29.55;100908.73;2267966;76;51684;-74
2023/06/13 09:20:30;;;;;;;;;;;;;;;26.35;29.54;100909.27;2322136;76;50363;-74
2023/06/13 09:23:32;;;;;;;;;;;;;;;26.35;29.54;100910.63;2293578;76;51493;-75
2023/06/13 09:26:34;;;;;;;;;;;;;;;26.31;29.63;100906.19;2321876;76;50309;-75
2023/06/13 09:29:36;;;;;;;;;;;;;;;26.32;29.58;100915.98;2322066;76;50743;-74
2023/06/13 09:32:38;;;;;;;;;;;;;;;26.31;29.65;100901.27;2293101;76;50032;-73
2023/06/13 09:35:41;;;;;;;;;;;;;;;26.29;29.69;100905.59;2293412;76;50923;-74
2023/06/13 09:38:43;;;;;;;;;;;;;;;26.28;29.70;100899.34;2293357;76;50770;-74
2023/06/13 09:41:44;;;;;;;;;;;;;;;26.27;29.70;100903.09;2322019;76;50397;-74
2023/06/13 09:44:46;;;;;;;;;;;;;;;26.26;29.73;100908.23;2321897;76;50249;-74
2023/06/13 09:47:47;;;;;;;;;;;;;;;26.27;29.65;100900.91;2321889;76;49967;-73
2023/06/13 09:50:50;;;;;;;;;;;;;;;26.26;29.72;100890.59;2321989;76;50493;-74
2023/06/13 09:53:51;;;;;;;;;;;;;;;26.26;29.69;100913.66;2292788;76;52354;-74
2023/06/13 09:56:53;;;;;;;;;;;;;;;26.26;29.65;100912.30;2267547;76;51006;-73
2023/06/13 09:59:54;;;;;;;;;;;;;;;26.24;29.68;100906.27;2293112;76;50393;-74
2023/06/13 10:02:56;;;;;;;;;;;;;;;26.25;29.61;100907.91;2321829;76;50372;-74
2023/06/13 10:05:58;;;;;;;;;;;;;;;26.23;29.62;100903.77;2292803;76;51825;-74
2023/06/13 10:09:00;;;;;;;;;;;;;;;26.22;29.69;100893.45;2292835;76;50431;-74
2023/06/13 10:12:02;;;;;;;;;;;;;;;26.23;29.71;100901.91;2301914;76;50325;-74
2023/06/13 10:15:03;;;;;;;;;;;;;;;26.23;29.73;100901.05;2297198;77;50262;-75
2023/06/13 10:18:06;;;;;;;;;;;;;;;26.22;29.72;100902.13;2278054;76;51140;-75
2023/06/13 10:21:11;;;;;;;;;;;;;;;26.22;29.73;100908.37;2297302;76;50288;-75
2023/06/13 10:24:12;;;;;;;;;;;;;;;26.23;29.80;100899.70;2297389;77;22245;-75
2023/06/13 10:27:14;;;;;;;;;;;;;;;26.21;29.82;100889.09;2297028;77;50302;-74
2023/06/13 10:30:17;;;;;;;;;;;;;;;26.20;29.79;100894.23;2278063;76;52464;-74
2023/06/13 10:33:30;;;;;;;;;;;;;;;26.19;29.84;100885.78;2297171;76;51407;-74
2023/06/13 10:36:36;;;;;;;;;;;;;;;26.18;29.84;100889.56;2296878;76;50461;-75
2023/06/13 10:39:39;;;;;;;;;;;;;;;26.17;29.85;100892.48;2308723;75;51389;-75
2023/06/13 10:42:41;;;;;;;;;;;;;;;26.15;29.90;100887.81;2278301;76;52617;-75
2023/06/13 10:45:43;;;;;;;;;;;;;;;26.16;29.93;100888.95;2297414;77;50279;-75
2023/06/13 10:48:48;;;;;;;;;;;;;;;26.16;29.92;100886.77;2297077;76;51547;-75
2023/06/13 10:51:50;;;;;;;;;;;;;;;26.14;29.99;100905.97;2297493;77;51649;-74
2023/06/13 10:54:53;;;;;;;;;;;;;;;26.14;30.00;100898.37;2253432;77;52613;-75
2023/06/13 10:58:01;;;;;;;;;;;;;;;26.15;30.03;100901.37;2278301;77;50326;-75
2023/06/13 11:01:00;;;;;;;;;;;;;;;26.15;30.01;100904.94;2295744;76;22328;-74
2023/06/13 11:04:14;;;;;;;;;;;;;;;26.15;29.99;100902.73;2297157;76;50323;-75
2023/06/13 11:07:24;;;;;;;;;;;;;;;26.15;29.98;100911.72;2277963;77;52452;-75
2023/06/13 11:10:25;;;;;;;;;;;;;;;26.14;30.00;100905.97;2310670;76;51375;-75
2023/06/13 11:13:27;;;;;;;;;;;;;;;26.13;30.01;100911.11;2322052;76;51617;-75
2023/06/13 11:16:38;;;;;;;;;;;;;;;26.14;29.99;100899.73;2318812;75;51548;-75
2023/06/13 11:19:40;;;;;;;;;;;;;;;26.13;29.92;100891.30;2278129;77;50884;-75
2023/06/13 11:22:41;;;;;;;;;;;;;;;26.13;29.95;100895.38;2297596;76;51469;-75
2023/06/13 11:25:43;;;;;;;;;;;;;;;26.14;29.94;100889.70;2281528;76;51392;-75
2023/06/13 11:28:46;;;;;;;;;;;;;;;26.12;29.88;100891.81;2321825;76;50300;-75
2023/06/13 11:31:50;;;;;;;;;;;;;;;26.11;29.93;100882.56;2267668;76;53069;-75
2023/06/13 11:34:52;;;;;;;;;;;;;;;26.10;29.96;100884.95;2322115;75;50337;-75
2023/06/13 11:37:56;;;;;;;;;;;;;;;26.07;29.98;100875.39;2321930;75;50226;-75
2023/06/13 11:40:57;;;;;;;;;;;;;;;26.08;29.97;100870.82;2313841;76;22555;-75
2023/06/13 11:43:58;;;;;;;;;;;;;;;26.06;30.02;100871.86;2293500;76;51209;-74
2023/06/13 11:47:00;;;;;;;;;;;;;;;26.09;29.96;100871.93;2322030;75;50285;-73
2023/06/13 11:50:02;;;;;;;;;;;;;;;26.08;29.98;100868.11;2322385;76;51156;-75
2023/06/13 11:53:04;;;;;;;;;;;;;;;26.11;29.97;100872.53;2322278;76;50670;-75
2023/06/13 11:56:05;;;;;;;;;;;;;;;26.12;30.00;100871.47;2293220;76;52415;-76
2023/06/13 11:59:17;;;;;;;;;;;;;;;26.08;30.02;100859.97;2300328;75;51958;-75
2023/06/13 12:02:18;;;;;;;;;;;;;;;26.09;30.05;100858.91;2359174;74;50261;-75
2023/06/13 12:05:20;;;;;;;;;;;;;;;26.09;30.04;100863.80;2291289;76;51528;-76
2023/06/13 12:08:22;;;;;;;;;;;;;;;26.09;29.98;100876.00;2281710;76;52498;-74
2023/06/13 12:11:28;;;;;;;;;;;;;;;26.11;29.99;100868.47;2308892;76;50243;-74
2023/06/13 12:14:28;;;;;;;;;;;;;;;26.13;30.02;100864.19;2307608;76;22522;-75
2023/06/13 12:17:30;;;;;;;;;;;;;;;26.11;30.06;100862.22;2321848;76;51501;-76
2023/06/13 12:20:36;;;;;;;;;;;;;;;26.09;30.08;100862.44;2267520;76;52443;-75
2023/06/13 12:23:37;;;;;;;;;;;;;;;26.09;30.07;100861.08;2311296;75;23429;-75
2023/06/13 12:26:41;;;;;;;;;;;;;;;26.09;30.10;100853.48;2356185;75;22317;-76
2023/06/13 12:29:43;;;;;;;;;;;;;;;26.09;30.16;100846.17;2360766;74;51480;-75
2023/06/13 12:32:46;;;;;;;;;;;;;;;26.08;30.25;100842.34;2334370;75;52369;-76
2023/06/13 12:35:52;;;;;;;;;;;;;;;26.07;30.27;100846.92;2334779;74;51409;-75
2023/06/13 12:38:54;;;;;;;;;;;;;;;26.04;30.55;100849.55;2340941;75;50727;-76
2023/06/13 12:41:55;;;;;;;;;;;;;;;26.02;30.61;100842.20;2314309;76;51539;-76
2023/06/13 12:44:57;;;;;;;;;;;;;;;26.02;30.62;100840.84;2292922;76;50999;-76
2023/06/13 12:47:59;;;;;;;;;;;;;;;26.03;30.82;100845.20;2321842;76;50450;-76
2023/06/13 12:51:00;;;;;;;;;;;;;;;26.04;30.83;100848.73;2293728;75;50350;-75
2023/06/13 12:54:12;;;;;;;;;;;;;;;26.03;30.91;100855.23;2313712;76;50652;-76
2023/06/13 12:57:14;;;;;;;;;;;;;;;26.02;30.85;100852.20;2292904;76;49716;-77
2023/06/13 13:00:17;;;;;;;;;;;;;;;26.05;30.96;100840.92;2291120;75;50460;-78
2023/06/13 13:03:19;;;;;;;;;;;;;;;26.05;31.00;100847.70;2300643;76;51781;-77
2023/06/13 13:06:23;;;;;;;;;;;;;;;26.05;31.23;100844.98;2309635;75;51597;-78
2023/06/13 13:09:25;;;;;;;;;;;;;;;26.10;31.45;100839.70;2315190;76;22456;-78
2023/06/13 13:12:27;;;;;;;;;;;;;;;26.09;31.61;100827.72;2292221;76;50705;-78
2023/06/13 13:15:29;;;;;;;;;;;;;;;26.09;31.98;100823.11;2301137;76;51404;-77
2023/06/13 13:18:30;;;;;;;;;;;;;;;26.08;32.57;100820.66;2313664;75;50579;-79
2023/06/13 13:21:32;;;;;;;;;;;;;;;26.09;31.86;100831.78;2279504;76;52420;-79
2023/06/13 13:24:35;;;;;;;;;;;;;;;26.02;31.02;100818.30;2305581;76;50448;-80
2023/06/13 13:27:37;;;;;;;;;;;;;;;26.01;30.59;100834.28;2307929;75;51266;-79
2023/06/13 13:30:39;;;;;;;;;;;;;;;25.97;30.49;100847.98;2315679;76;51538;-79
2023/06/13 13:33:41;;;;;;;;;;;;;;;25.95;30.62;100828.43;2271055;76;51716;-80
2023/06/13 13:36:42;;;;;;;;;;;;;;;25.90;30.32;100823.69;2324844;76;50784;-81
2023/06/13 13:39:44;;;;;;;;;;;;;;;25.89;30.21;100822.55;2325034;75;51449;-81
2023/06/13 13:42:46;;;;;;;;;;;;;;;25.90;30.35;100818.27;2324590;76;51738;-79
2023/06/13 13:45:47;;;;;;;;;;;;;;;25.90;30.53;100825.58;2297234;75;51151;-79
2023/06/13 13:48:49;;;;;;;;;;;;;;;25.88;30.37;100819.55;2325535;75;50622;-78
2023/06/13 13:51:50;;;;;;;;;;;;;;;25.83;30.45;100829.14;2297961;76;50205;-77
2023/06/13 13:54:52;;;;;;;;;;;;;;;25.81;30.50;100816.34;2293026;76;49773;-76
2023/06/13 13:57:54;;;;;;;;;;;;;;;25.81;30.48;100820.94;2294975;76;51091;-76
2023/06/13 14:00:57;;;;;;;;;;;;;;;25.82;30.58;100821.26;2295579;76;51497;-75
2023/06/13 14:03:59;;;;;;;;;;;;;;;25.79;30.71;100823.04;2324477;76;51651;-75
2023/06/13 14:07:00;;;;;;;;;;;;;;;25.76;30.42;100814.02;2324406;75;50361;-77
2023/06/13 14:10:02;;;;;;;;;;;;;;;25.76;30.37;100819.44;2269277;76;51113;-76
2023/06/13 14:13:05;;;;;;;;;;;;;;;25.73;30.28;100828.02;2293472;76;51538;-75
2023/06/13 14:16:06;;;;;;;;;;;;;;;25.74;30.39;100816.12;2294177;76;50689;-79
2023/06/13 14:19:08;;;;;;;;;;;;;;;25.70;29.84;100831.20;2295535;75;51352;-75
2023/06/13 14:22:09;;;;;;;;;;;;;;;25.62;29.62;100813.35;2286958;76;52763;-76
2023/06/13 14:25:11;;;;;;;;;;;;;;;25.62;29.88;100824.19;2293313;76;51541;-76
2023/06/13 14:28:13;;;;;;;;;;;;;;;25.56;29.85;100827.28;2293215;76;50676;-76
2023/06/13 14:31:14;;;;;;;;;;;;;;;25.51;29.77;100824.42;2324188;76;50365;-76
2023/06/13 14:34:17;;;;;;;;;;;;;;;25.50;29.80;100832.23;2269116;75;52072;-77
2023/06/13 14:37:18;;;;;;;;;;;;;;;25.48;29.88;100828.91;2323455;76;51573;-77
2023/06/13 14:40:20;;;;;;;;;;;;;;;25.52;29.64;100834.19;2293310;76;50283;-75
2023/06/13 14:43:22;;;;;;;;;;;;;;;25.47;29.68;100831.86;2293416;76;49944;-76
2023/06/13 14:46:23;;;;;;;;;;;;;;;25.44;29.93;100822.84;2321989;76;50243;-75
2023/06/13 14:49:25;;;;;;;;;;;;;;;25.48;30.22;100826.73;2293654;76;50824;-76
2023/06/13 14:52:26;;;;;;;;;;;;;;;25.48;30.06;100815.36;2322445;75;50222;-77
2023/06/13 14:55:29;;;;;;;;;;;;;;;25.46;30.05;100821.56;2322051;76;50624;-76
2023/06/13 14:58:31;;;;;;;;;;;;;;;25.44;30.03;100830.96;2293345;76;52589;-76
2023/06/13 15:01:34;;;;;;;;;;;;;;;25.39;30.00;100832.45;2294923;76;50748;-77
2023/06/13 15:04:35;;;;;;;;;;;;;;;25.36;29.66;100820.72;2323782;75;26118;-78
2023/06/13 15:07:37;;;;;;;;;;;;;;;25.40;29.82;100824.61;2295036;76;50296;-78
2023/06/13 15:10:39;;;;;;;;;;;;;;;25.44;29.58;100818.23;2295091;76;52552;-78
2023/06/13 15:13:40;;;;;;;;;;;;;;;25.46;29.69;100811.22;2295081;76;51422;-77
2023/06/13 15:16:42;;;;;;;;;;;;;;;25.51;29.77;100812.73;2324492;76;51506;-76
2023/06/13 15:19:43;;;;;;;;;;;;;;;25.48;29.71;100811.30;2295648;75;51417;-78
2023/06/13 15:22:45;;;;;;;;;;;;;;;25.44;29.58;100809.29;2265981;76;51239;-76
2023/06/13 15:25:47;;;;;;;;;;;;;;;25.38;29.11;100820.47;2278252;77;49956;-77
2023/06/13 15:28:49;;;;;;;;;;;;;;;25.22;29.01;100816.47;2297151;76;50228;-77
2023/06/13 15:31:51;;;;;;;;;;;;;;;25.24;29.01;100815.73;2297479;77;51545;-78
2023/06/13 15:34:53;;;;;;;;;;;;;;;25.21;29.12;100814.83;2297337;77;50265;-77
2023/06/13 15:37:55;;;;;;;;;;;;;;;25.17;29.04;100812.25;2256390;75;51650;-78
2023/06/13 15:40:56;;;;;;;;;;;;;;;25.27;29.28;100816.63;2318138;76;51555;-78